sensor_id;sensor_type;location;lat;lon;timestamp;P1;durP1;ratioP1;P2;durP2;ratioP2
4057;SDS011;2044;48.692;9.020;2023-07-31T00:01:03;1.80;;;1.43;;
4057;SDS011;2044;48.692;9.020;2023-07-31T00:03:30;2.90;;;2.07;;
4057;SDS011;2044;48.692;9.020;2023-07-31T00:05:57;4.83;;;2.07;;
4057;SDS011;2044;48.692;9.020;2023-07-31T00:08:25;4.97;;;1.93;;
4057;SDS011;2044;48.692;9.020;2023-07-31T00:10:51;1.90;;;1.63;;
4057;SDS011;2044;48.692;9.020;2023-07-31T00:13:18;4.37;;;2.07;;
4057;SDS011;2044;48.692;9.020;2023-07-31T00:15:45;2.57;;;2.00;;
4057;SDS011;2044;48.692;9.020;2023-07-31T00:18:12;2.90;;;1.87;;
4057;SDS011;2044;48.692;9.020;2023-07-31T00:20:39;2.90;;;2.20;;
4057;SDS011;2044;48.692;9.020;2023-07-31T00:23:06;2.03;;;1.80;;
4057;SDS011;2044;48.692;9.020;2023-07-31T00:25:34;2.83;;;1.70;;
4057;SDS011;2044;48.692;9.020;2023-07-31T00:28:01;2.53;;;2.30;;
4057;SDS011;2044;48.692;9.020;2023-07-31T00:30:27;2.90;;;2.30;;
4057;SDS011;2044;48.692;9.020;2023-07-31T00:32:54;2.57;;;2.37;;
4057;SDS011;2044;48.692;9.020;2023-07-31T00:35:21;2.77;;;2.17;;
4057;SDS011;2044;48.692;9.020;2023-07-31T00:37:47;2.13;;;1.70;;
4057;SDS011;2044;48.692;9.020;2023-07-31T00:40:14;2.57;;;2.23;;
4057;SDS011;2044;48.692;9.020;2023-07-31T00:42:42;2.20;;;1.93;;
4057;SDS011;2044;48.692;9.020;2023-07-31T00:45:09;3.10;;;2.10;;
4057;SDS011;2044;48.692;9.020;2023-07-31T00:47:36;2.10;;;1.90;;
4057;SDS011;2044;48.692;9.020;2023-07-31T00:50:03;4.30;;;2.00;;
4057;SDS011;2044;48.692;9.020;2023-07-31T00:52:30;2.17;;;1.60;;
4057;SDS011;2044;48.692;9.020;2023-07-31T00:54:57;3.90;;;1.90;;
4057;SDS011;2044;48.692;9.020;2023-07-31T00:57:25;4.43;;;2.40;;
4057;SDS011;2044;48.692;9.020;2023-07-31T00:59:53;2.87;;;2.13;;
4057;SDS011;2044;48.692;9.020;2023-07-31T01:02:19;2.00;;;1.80;;
4057;SDS011;2044;48.692;9.020;2023-07-31T01:04:46;2.50;;;2.07;;
4057;SDS011;2044;48.692;9.020;2023-07-31T01:07:14;6.97;;;3.73;;
4057;SDS011;2044;48.692;9.020;2023-07-31T01:09:47;2.20;;;1.63;;
4057;SDS011;2044;48.692;9.020;2023-07-31T01:12:30;2.00;;;1.90;;
4057;SDS011;2044;48.692;9.020;2023-07-31T01:15:06;5.40;;;2.40;;
4057;SDS011;2044;48.692;9.020;2023-07-31T01:17:35;4.33;;;2.20;;
4057;SDS011;2044;48.692;9.020;2023-07-31T01:20:03;3.30;;;1.60;;
4057;SDS011;2044;48.692;9.020;2023-07-31T01:22:41;2.83;;;1.97;;
4057;SDS011;2044;48.692;9.020;2023-07-31T01:25:24;5.67;;;2.23;;
4057;SDS011;2044;48.692;9.020;2023-07-31T01:28:05;3.20;;;2.10;;
4057;SDS011;2044;48.692;9.020;2023-07-31T01:30:37;2.30;;;1.60;;
4057;SDS011;2044;48.692;9.020;2023-07-31T01:33:07;4.70;;;2.20;;
4057;SDS011;2044;48.692;9.020;2023-07-31T01:35:35;3.47;;;1.90;;
4057;SDS011;2044;48.692;9.020;2023-07-31T01:38:02;3.00;;;1.90;;
4057;SDS011;2044;48.692;9.020;2023-07-31T01:40:30;3.30;;;1.90;;
4057;SDS011;2044;48.692;9.020;2023-07-31T01:42:57;4.23;;;1.70;;
4057;SDS011;2044;48.692;9.020;2023-07-31T01:45:25;3.43;;;2.13;;
4057;SDS011;2044;48.692;9.020;2023-07-31T01:47:52;4.30;;;1.97;;
4057;SDS011;2044;48.692;9.020;2023-07-31T01:50:18;4.90;;;2.33;;
4057;SDS011;2044;48.692;9.020;2023-07-31T01:52:45;2.43;;;2.00;;
4057;SDS011;2044;48.692;9.020;2023-07-31T01:55:12;3.57;;;2.07;;
4057;SDS011;2044;48.692;9.020;2023-07-31T01:57:39;3.60;;;2.10;;
4057;SDS011;2044;48.692;9.020;2023-07-31T02:00:07;3.70;;;1.90;;
4057;SDS011;2044;48.692;9.020;2023-07-31T02:02:35;2.93;;;2.00;;
4057;SDS011;2044;48.692;9.020;2023-07-31T02:05:02;3.77;;;1.97;;
4057;SDS011;2044;48.692;9.020;2023-07-31T02:07:29;7.83;;;2.10;;
4057;SDS011;2044;48.692;9.020;2023-07-31T02:09:55;3.73;;;2.07;;
4057;SDS011;2044;48.692;9.020;2023-07-31T02:12:22;2.93;;;2.40;;
4057;SDS011;2044;48.692;9.020;2023-07-31T02:14:49;5.10;;;2.13;;
4057;SDS011;2044;48.692;9.020;2023-07-31T02:17:16;2.00;;;1.90;;
4057;SDS011;2044;48.692;9.020;2023-07-31T02:19:44;2.37;;;2.10;;
4057;SDS011;2044;48.692;9.020;2023-07-31T02:22:10;3.30;;;2.10;;
4057;SDS011;2044;48.692;9.020;2023-07-31T02:24:37;4.97;;;2.27;;
4057;SDS011;2044;48.692;9.020;2023-07-31T02:27:04;2.33;;;1.97;;
4057;SDS011;2044;48.692;9.020;2023-07-31T02:29:31;3.37;;;1.60;;
4057;SDS011;2044;48.692;9.020;2023-07-31T02:31:58;3.10;;;1.60;;
4057;SDS011;2044;48.692;9.020;2023-07-31T02:34:24;2.30;;;2.00;;
4057;SDS011;2044;48.692;9.020;2023-07-31T02:36:52;2.70;;;1.70;;
4057;SDS011;2044;48.692;9.020;2023-07-31T02:39:19;2.80;;;2.13;;
4057;SDS011;2044;48.692;9.020;2023-07-31T02:41:46;1.73;;;1.63;;
4057;SDS011;2044;48.692;9.020;2023-07-31T02:44:13;2.73;;;2.00;;
4057;SDS011;2044;48.692;9.020;2023-07-31T02:46:39;6.47;;;1.97;;
4057;SDS011;2044;48.692;9.020;2023-07-31T02:49:06;3.57;;;1.90;;
4057;SDS011;2044;48.692;9.020;2023-07-31T02:51:33;1.90;;;1.80;;
4057;SDS011;2044;48.692;9.020;2023-07-31T02:54:01;2.77;;;2.00;;
4057;SDS011;2044;48.692;9.020;2023-07-31T02:56:28;5.53;;;2.10;;
4057;SDS011;2044;48.692;9.020;2023-07-31T02:58:54;1.97;;;1.77;;
4057;SDS011;2044;48.692;9.020;2023-07-31T03:01:21;1.53;;;1.40;;
4057;SDS011;2044;48.692;9.020;2023-07-31T03:03:48;1.53;;;1.43;;
4057;SDS011;2044;48.692;9.020;2023-07-31T03:06:14;2.30;;;1.70;;
4057;SDS011;2044;48.692;9.020;2023-07-31T03:08:41;2.00;;;1.63;;
4057;SDS011;2044;48.692;9.020;2023-07-31T03:11:09;2.33;;;1.63;;
4057;SDS011;2044;48.692;9.020;2023-07-31T03:13:36;3.97;;;2.20;;
4057;SDS011;2044;48.692;9.020;2023-07-31T03:16:02;1.83;;;1.50;;
4057;SDS011;2044;48.692;9.020;2023-07-31T03:18:29;3.23;;;1.90;;
4057;SDS011;2044;48.692;9.020;2023-07-31T03:20:56;4.13;;;2.17;;
4057;SDS011;2044;48.692;9.020;2023-07-31T03:23:23;3.20;;;1.97;;
4057;SDS011;2044;48.692;9.020;2023-07-31T03:25:57;4.00;;;2.03;;
4057;SDS011;2044;48.692;9.020;2023-07-31T03:28:25;1.77;;;1.67;;
4057;SDS011;2044;48.692;9.020;2023-07-31T03:30:52;2.90;;;2.07;;
4057;SDS011;2044;48.692;9.020;2023-07-31T03:33:19;4.83;;;2.00;;
4057;SDS011;2044;48.692;9.020;2023-07-31T03:35:46;1.70;;;1.60;;
4057;SDS011;2044;48.692;9.020;2023-07-31T03:38:13;4.30;;;2.00;;
4057;SDS011;2044;48.692;9.020;2023-07-31T03:40:39;1.93;;;1.77;;
4057;SDS011;2044;48.692;9.020;2023-07-31T03:43:06;2.50;;;1.97;;
4057;SDS011;2044;48.692;9.020;2023-07-31T03:45:34;2.90;;;2.07;;
4057;SDS011;2044;48.692;9.020;2023-07-31T03:48:01;3.33;;;2.80;;
4057;SDS011;2044;48.692;9.020;2023-07-31T03:50:28;3.63;;;2.10;;
4057;SDS011;2044;48.692;9.020;2023-07-31T03:52:54;2.77;;;2.10;;
4057;SDS011;2044;48.692;9.020;2023-07-31T03:55:21;3.77;;;2.20;;
4057;SDS011;2044;48.692;9.020;2023-07-31T03:57:48;1.83;;;1.70;;
4057;SDS011;2044;48.692;9.020;2023-07-31T04:00:15;3.87;;;2.07;;
4057;SDS011;2044;48.692;9.020;2023-07-31T04:02:43;4.00;;;1.80;;
4057;SDS011;2044;48.692;9.020;2023-07-31T04:05:09;2.80;;;2.27;;
4057;SDS011;2044;48.692;9.020;2023-07-31T04:07:37;2.30;;;1.73;;
4057;SDS011;2044;48.692;9.020;2023-07-31T04:10:04;3.97;;;1.97;;
4057;SDS011;2044;48.692;9.020;2023-07-31T04:12:31;3.73;;;2.07;;
4057;SDS011;2044;48.692;9.020;2023-07-31T04:14:57;3.13;;;2.03;;
4057;SDS011;2044;48.692;9.020;2023-07-31T04:17:24;2.87;;;2.20;;
4057;SDS011;2044;48.692;9.020;2023-07-31T04:19:52;3.30;;;2.07;;
4057;SDS011;2044;48.692;9.020;2023-07-31T04:22:19;2.70;;;2.00;;
4057;SDS011;2044;48.692;9.020;2023-07-31T04:24:45;1.80;;;1.67;;
4057;SDS011;2044;48.692;9.020;2023-07-31T04:27:12;2.53;;;1.70;;
4057;SDS011;2044;48.692;9.020;2023-07-31T04:29:39;2.97;;;2.07;;
4057;SDS011;2044;48.692;9.020;2023-07-31T04:32:07;2.90;;;1.77;;
4057;SDS011;2044;48.692;9.020;2023-07-31T04:34:34;2.93;;;2.33;;
4057;SDS011;2044;48.692;9.020;2023-07-31T04:37:03;3.13;;;2.10;;
4057;SDS011;2044;48.692;9.020;2023-07-31T04:39:30;4.70;;;2.00;;
4057;SDS011;2044;48.692;9.020;2023-07-31T04:41:57;2.93;;;2.17;;
4057;SDS011;2044;48.692;9.020;2023-07-31T04:44:24;2.90;;;2.13;;
4057;SDS011;2044;48.692;9.020;2023-07-31T04:46:51;3.43;;;1.93;;
4057;SDS011;2044;48.692;9.020;2023-07-31T04:49:18;7.17;;;2.47;;
4057;SDS011;2044;48.692;9.020;2023-07-31T04:51:45;2.40;;;1.90;;
4057;SDS011;2044;48.692;9.020;2023-07-31T04:54:13;2.00;;;1.60;;
4057;SDS011;2044;48.692;9.020;2023-07-31T04:56:40;1.40;;;1.30;;
4057;SDS011;2044;48.692;9.020;2023-07-31T04:59:07;1.90;;;1.80;;
4057;SDS011;2044;48.692;9.020;2023-07-31T05:01:34;2.70;;;1.70;;
4057;SDS011;2044;48.692;9.020;2023-07-31T05:04:03;1.87;;;1.77;;
4057;SDS011;2044;48.692;9.020;2023-07-31T05:06:30;3.90;;;2.03;;
4057;SDS011;2044;48.692;9.020;2023-07-31T05:08:57;1.93;;;1.83;;
4057;SDS011;2044;48.692;9.020;2023-07-31T05:11:34;2.40;;;2.17;;
4057;SDS011;2044;48.692;9.020;2023-07-31T05:14:00;1.83;;;1.70;;
4057;SDS011;2044;48.692;9.020;2023-07-31T05:16:27;2.80;;;1.63;;
4057;SDS011;2044;48.692;9.020;2023-07-31T05:18:54;2.23;;;2.03;;
4057;SDS011;2044;48.692;9.020;2023-07-31T05:21:22;2.60;;;1.97;;
4057;SDS011;2044;48.692;9.020;2023-07-31T05:23:50;2.20;;;2.00;;
4057;SDS011;2044;48.692;9.020;2023-07-31T05:26:19;2.70;;;2.30;;
4057;SDS011;2044;48.692;9.020;2023-07-31T05:28:47;2.83;;;2.27;;
4057;SDS011;2044;48.692;9.020;2023-07-31T05:31:14;2.80;;;2.30;;
4057;SDS011;2044;48.692;9.020;2023-07-31T05:33:41;2.57;;;2.17;;
4057;SDS011;2044;48.692;9.020;2023-07-31T05:36:07;2.33;;;2.13;;
4057;SDS011;2044;48.692;9.020;2023-07-31T05:38:34;3.23;;;2.60;;
4057;SDS011;2044;48.692;9.020;2023-07-31T05:41:01;2.60;;;2.43;;
4057;SDS011;2044;48.692;9.020;2023-07-31T05:43:29;2.63;;;2.03;;
4057;SDS011;2044;48.692;9.020;2023-07-31T05:45:58;2.90;;;2.70;;
4057;SDS011;2044;48.692;9.020;2023-07-31T05:48:26;2.90;;;2.70;;
4057;SDS011;2044;48.692;9.020;2023-07-31T05:50:53;3.33;;;3.00;;
4057;SDS011;2044;48.692;9.020;2023-07-31T05:53:20;3.33;;;2.70;;
4057;SDS011;2044;48.692;9.020;2023-07-31T05:55:51;6.30;;;3.20;;
4057;SDS011;2044;48.692;9.020;2023-07-31T05:58:18;3.00;;;2.80;;
4057;SDS011;2044;48.692;9.020;2023-07-31T06:00:45;4.40;;;3.23;;
4057;SDS011;2044;48.692;9.020;2023-07-31T06:03:13;3.33;;;3.13;;
4057;SDS011;2044;48.692;9.020;2023-07-31T06:05:40;3.77;;;3.47;;
4057;SDS011;2044;48.692;9.020;2023-07-31T06:08:07;4.20;;;3.83;;
4057;SDS011;2044;48.692;9.020;2023-07-31T06:17:42;4.13;;;3.47;;
4057;SDS011;2044;48.692;9.020;2023-07-31T06:36:09;6.43;;;3.93;;
4057;SDS011;2044;48.692;9.020;2023-07-31T06:38:36;6.10;;;3.90;;
4057;SDS011;2044;48.692;9.020;2023-07-31T06:41:04;4.80;;;4.43;;
4057;SDS011;2044;48.692;9.020;2023-07-31T06:43:31;5.10;;;4.60;;
4057;SDS011;2044;48.692;9.020;2023-07-31T06:45:59;4.43;;;4.00;;
4057;SDS011;2044;48.692;9.020;2023-07-31T06:48:28;4.60;;;4.30;;
4057;SDS011;2044;48.692;9.020;2023-07-31T06:50:55;5.17;;;4.87;;
4057;SDS011;2044;48.692;9.020;2023-07-31T06:53:38;4.60;;;4.40;;
4057;SDS011;2044;48.692;9.020;2023-07-31T06:56:20;5.80;;;5.23;;
4057;SDS011;2044;48.692;9.020;2023-07-31T06:58:49;6.07;;;5.63;;
4057;SDS011;2044;48.692;9.020;2023-07-31T07:01:30;5.03;;;4.73;;
4057;SDS011;2044;48.692;9.020;2023-07-31T07:04:12;5.27;;;4.83;;
4057;SDS011;2044;48.692;9.020;2023-07-31T07:06:53;5.07;;;4.87;;
4057;SDS011;2044;48.692;9.020;2023-07-31T07:09:22;5.20;;;4.90;;
4057;SDS011;2044;48.692;9.020;2023-07-31T07:11:52;5.50;;;5.20;;
4057;SDS011;2044;48.692;9.020;2023-07-31T07:14:26;6.23;;;5.73;;
4057;SDS011;2044;48.692;9.020;2023-07-31T07:16:56;5.67;;;5.20;;
4057;SDS011;2044;48.692;9.020;2023-07-31T07:19:23;5.70;;;5.43;;
4057;SDS011;2044;48.692;9.020;2023-07-31T07:21:50;6.17;;;5.77;;
4057;SDS011;2044;48.692;9.020;2023-07-31T07:24:28;6.50;;;6.10;;
4057;SDS011;2044;48.692;9.020;2023-07-31T07:27:02;6.67;;;6.27;;
4057;SDS011;2044;48.692;9.020;2023-07-31T07:29:30;6.93;;;6.63;;
4057;SDS011;2044;48.692;9.020;2023-07-31T07:31:58;6.30;;;5.90;;
4057;SDS011;2044;48.692;9.020;2023-07-31T07:34:26;5.70;;;5.40;;
4057;SDS011;2044;48.692;9.020;2023-07-31T07:37:07;5.67;;;5.37;;
4057;SDS011;2044;48.692;9.020;2023-07-31T07:39:39;6.57;;;5.83;;
4057;SDS011;2044;48.692;9.020;2023-07-31T07:42:06;5.57;;;5.20;;
4057;SDS011;2044;48.692;9.020;2023-07-31T07:44:34;6.03;;;5.73;;
4057;SDS011;2044;48.692;9.020;2023-07-31T07:47:01;6.20;;;5.80;;
4057;SDS011;2044;48.692;9.020;2023-07-31T07:49:31;6.63;;;6.23;;
4057;SDS011;2044;48.692;9.020;2023-07-31T07:51:58;7.30;;;6.60;;
4057;SDS011;2044;48.692;9.020;2023-07-31T07:54:26;6.97;;;6.63;;
4057;SDS011;2044;48.692;9.020;2023-07-31T07:56:55;7.43;;;6.83;;
4057;SDS011;2044;48.692;9.020;2023-07-31T07:59:23;8.57;;;7.40;;
4057;SDS011;2044;48.692;9.020;2023-07-31T08:01:50;7.33;;;7.00;;
4057;SDS011;2044;48.692;9.020;2023-07-31T08:04:18;7.50;;;7.17;;
4057;SDS011;2044;48.692;9.020;2023-07-31T08:06:46;8.27;;;7.77;;
4057;SDS011;2044;48.692;9.020;2023-07-31T08:09:14;8.47;;;8.07;;
4057;SDS011;2044;48.692;9.020;2023-07-31T08:11:41;8.20;;;7.80;;
4057;SDS011;2044;48.692;9.020;2023-07-31T08:14:11;8.43;;;8.00;;
4057;SDS011;2044;48.692;9.020;2023-07-31T08:16:38;8.73;;;8.03;;
4057;SDS011;2044;48.692;9.020;2023-07-31T08:19:05;10.07;;;9.23;;
4057;SDS011;2044;48.692;9.020;2023-07-31T08:21:32;8.53;;;8.03;;
4057;SDS011;2044;48.692;9.020;2023-07-31T08:23:59;8.37;;;7.97;;
4057;SDS011;2044;48.692;9.020;2023-07-31T08:26:27;8.60;;;8.20;;
4057;SDS011;2044;48.692;9.020;2023-07-31T08:28:54;8.77;;;8.30;;
4057;SDS011;2044;48.692;9.020;2023-07-31T08:31:23;9.47;;;8.97;;
4057;SDS011;2044;48.692;9.020;2023-07-31T08:33:52;9.73;;;9.33;;
4057;SDS011;2044;48.692;9.020;2023-07-31T08:36:19;10.10;;;9.30;;
4057;SDS011;2044;48.692;9.020;2023-07-31T08:38:46;9.60;;;9.10;;
4057;SDS011;2044;48.692;9.020;2023-07-31T08:41:15;9.83;;;9.33;;
4057;SDS011;2044;48.692;9.020;2023-07-31T08:43:42;10.23;;;9.27;;
4057;SDS011;2044;48.692;9.020;2023-07-31T08:46:11;10.53;;;9.80;;
4057;SDS011;2044;48.692;9.020;2023-07-31T08:48:41;9.53;;;9.03;;
4057;SDS011;2044;48.692;9.020;2023-07-31T08:51:09;9.83;;;9.27;;
4057;SDS011;2044;48.692;9.020;2023-07-31T08:53:36;9.57;;;9.07;;
4057;SDS011;2044;48.692;9.020;2023-07-31T08:56:02;9.67;;;9.17;;
4057;SDS011;2044;48.692;9.020;2023-07-31T08:58:30;9.83;;;9.33;;
4057;SDS011;2044;48.692;9.020;2023-07-31T09:00:58;8.87;;;8.47;;
4057;SDS011;2044;48.692;9.020;2023-07-31T09:03:29;9.70;;;9.10;;
4057;SDS011;2044;48.692;9.020;2023-07-31T09:06:02;8.50;;;8.10;;
4057;SDS011;2044;48.692;9.020;2023-07-31T09:08:31;8.67;;;8.00;;
4057;SDS011;2044;48.692;9.020;2023-07-31T09:10:59;9.23;;;8.60;;
4057;SDS011;2044;48.692;9.020;2023-07-31T09:13:27;9.20;;;8.70;;
4057;SDS011;2044;48.692;9.020;2023-07-31T09:15:55;8.70;;;8.30;;
4057;SDS011;2044;48.692;9.020;2023-07-31T09:18:22;9.50;;;9.00;;
4057;SDS011;2044;48.692;9.020;2023-07-31T09:21:00;10.13;;;9.30;;
4057;SDS011;2044;48.692;9.020;2023-07-31T09:23:39;9.53;;;9.00;;
4057;SDS011;2044;48.692;9.020;2023-07-31T09:26:07;9.60;;;9.10;;
4057;SDS011;2044;48.692;9.020;2023-07-31T09:28:33;9.60;;;9.07;;
4057;SDS011;2044;48.692;9.020;2023-07-31T09:31:00;9.63;;;9.13;;
4057;SDS011;2044;48.692;9.020;2023-07-31T09:33:27;10.67;;;9.93;;
4057;SDS011;2044;48.692;9.020;2023-07-31T09:35:56;10.73;;;9.93;;
4057;SDS011;2044;48.692;9.020;2023-07-31T09:38:27;10.30;;;9.50;;
4057;SDS011;2044;48.692;9.020;2023-07-31T09:40:54;10.33;;;9.63;;
4057;SDS011;2044;48.692;9.020;2023-07-31T09:43:24;10.13;;;9.57;;
4057;SDS011;2044;48.692;9.020;2023-07-31T09:45:54;11.20;;;10.40;;
4057;SDS011;2044;48.692;9.020;2023-07-31T09:48:23;9.70;;;8.90;;
4057;SDS011;2044;48.692;9.020;2023-07-31T09:50:52;9.17;;;8.77;;
4057;SDS011;2044;48.692;9.020;2023-07-31T09:53:20;9.73;;;9.23;;
4057;SDS011;2044;48.692;9.020;2023-07-31T09:55:57;10.30;;;9.60;;
4057;SDS011;2044;48.692;9.020;2023-07-31T09:58:25;8.93;;;8.43;;
4057;SDS011;2044;48.692;9.020;2023-07-31T10:00:54;9.67;;;8.87;;
4057;SDS011;2044;48.692;9.020;2023-07-31T10:03:23;9.87;;;9.20;;
4057;SDS011;2044;48.692;9.020;2023-07-31T10:05:52;9.83;;;9.13;;
4057;SDS011;2044;48.692;9.020;2023-07-31T10:08:21;10.10;;;9.50;;
4057;SDS011;2044;48.692;9.020;2023-07-31T10:10:55;10.40;;;9.60;;
4057;SDS011;2044;48.692;9.020;2023-07-31T10:13:25;10.27;;;9.47;;
4057;SDS011;2044;48.692;9.020;2023-07-31T10:15:54;9.77;;;9.27;;
4057;SDS011;2044;48.692;9.020;2023-07-31T10:18:25;9.93;;;9.33;;
4057;SDS011;2044;48.692;9.020;2023-07-31T10:20:52;10.03;;;9.30;;
4057;SDS011;2044;48.692;9.020;2023-07-31T10:23:20;10.17;;;9.50;;
4057;SDS011;2044;48.692;9.020;2023-07-31T10:25:48;9.97;;;9.27;;
4057;SDS011;2044;48.692;9.020;2023-07-31T10:28:19;10.07;;;9.33;;
4057;SDS011;2044;48.692;9.020;2023-07-31T10:30:48;9.40;;;8.80;;
4057;SDS011;2044;48.692;9.020;2023-07-31T10:33:16;10.10;;;9.40;;
4057;SDS011;2044;48.692;9.020;2023-07-31T10:35:44;10.23;;;9.23;;
4057;SDS011;2044;48.692;9.020;2023-07-31T10:38:13;9.93;;;9.20;;
4057;SDS011;2044;48.692;9.020;2023-07-31T10:40:40;10.03;;;9.47;;
4057;SDS011;2044;48.692;9.020;2023-07-31T10:43:07;10.07;;;9.30;;
4057;SDS011;2044;48.692;9.020;2023-07-31T10:48:57;9.23;;;8.73;;
4057;SDS011;2044;48.692;9.020;2023-07-31T10:51:24;9.47;;;8.87;;
4057;SDS011;2044;48.692;9.020;2023-07-31T10:54:10;9.50;;;9.00;;
4057;SDS011;2044;48.692;9.020;2023-07-31T10:56:39;8.70;;;8.30;;
4057;SDS011;2044;48.692;9.020;2023-07-31T10:59:06;9.83;;;9.20;;
4057;SDS011;2044;48.692;9.020;2023-07-31T11:04:25;10.10;;;9.37;;
4057;SDS011;2044;48.692;9.020;2023-07-31T11:06:55;9.97;;;9.47;;
4057;SDS011;2044;48.692;9.020;2023-07-31T11:09:24;9.87;;;9.30;;
4057;SDS011;2044;48.692;9.020;2023-07-31T11:11:53;9.73;;;9.23;;
4057;SDS011;2044;48.692;9.020;2023-07-31T11:14:21;10.37;;;9.47;;
4057;SDS011;2044;48.692;9.020;2023-07-31T11:16:49;9.33;;;8.80;;
4057;SDS011;2044;48.692;9.020;2023-07-31T11:19:20;9.40;;;9.00;;
4057;SDS011;2044;48.692;9.020;2023-07-31T11:21:49;9.80;;;9.30;;
4057;SDS011;2044;48.692;9.020;2023-07-31T11:24:17;10.83;;;9.90;;
4057;SDS011;2044;48.692;9.020;2023-07-31T11:26:48;10.43;;;9.83;;
4057;SDS011;2044;48.692;9.020;2023-07-31T11:29:16;10.27;;;9.60;;
4057;SDS011;2044;48.692;9.020;2023-07-31T11:31:43;9.43;;;8.73;;
4057;SDS011;2044;48.692;9.020;2023-07-31T11:34:10;9.13;;;8.73;;
4057;SDS011;2044;48.692;9.020;2023-07-31T11:36:37;10.00;;;9.30;;
4057;SDS011;2044;48.692;9.020;2023-07-31T11:39:06;9.50;;;9.00;;
4057;SDS011;2044;48.692;9.020;2023-07-31T11:41:34;9.03;;;8.40;;
4057;SDS011;2044;48.692;9.020;2023-07-31T11:44:00;9.10;;;8.40;;
4057;SDS011;2044;48.692;9.020;2023-07-31T11:46:28;9.80;;;9.20;;
4057;SDS011;2044;48.692;9.020;2023-07-31T11:48:58;9.33;;;8.73;;
4057;SDS011;2044;48.692;9.020;2023-07-31T11:51:26;9.27;;;8.77;;
4057;SDS011;2044;48.692;9.020;2023-07-31T11:53:55;9.50;;;8.70;;
4057;SDS011;2044;48.692;9.020;2023-07-31T11:56:26;8.90;;;8.40;;
4057;SDS011;2044;48.692;9.020;2023-07-31T11:58:53;9.37;;;8.63;;
4057;SDS011;2044;48.692;9.020;2023-07-31T12:01:24;9.53;;;8.70;;
4057;SDS011;2044;48.692;9.020;2023-07-31T12:03:52;8.93;;;8.03;;
4057;SDS011;2044;48.692;9.020;2023-07-31T12:06:20;8.70;;;8.20;;
4057;SDS011;2044;48.692;9.020;2023-07-31T12:08:47;9.43;;;8.77;;
4057;SDS011;2044;48.692;9.020;2023-07-31T12:11:14;9.13;;;8.53;;
4057;SDS011;2044;48.692;9.020;2023-07-31T12:13:44;9.03;;;8.43;;
4057;SDS011;2044;48.692;9.020;2023-07-31T12:16:11;8.93;;;8.20;;
4057;SDS011;2044;48.692;9.020;2023-07-31T12:18:38;9.13;;;8.53;;
4057;SDS011;2044;48.692;9.020;2023-07-31T12:21:06;9.50;;;8.90;;
4057;SDS011;2044;48.692;9.020;2023-07-31T12:23:35;9.80;;;9.20;;
4057;SDS011;2044;48.692;9.020;2023-07-31T12:26:03;9.73;;;8.80;;
4057;SDS011;2044;48.692;9.020;2023-07-31T12:28:34;9.40;;;8.70;;
4057;SDS011;2044;48.692;9.020;2023-07-31T12:31:04;8.93;;;8.30;;
4057;SDS011;2044;48.692;9.020;2023-07-31T12:33:32;9.13;;;8.53;;
4057;SDS011;2044;48.692;9.020;2023-07-31T12:36:00;8.70;;;8.10;;
4057;SDS011;2044;48.692;9.020;2023-07-31T12:38:30;9.00;;;8.50;;
4057;SDS011;2044;48.692;9.020;2023-07-31T12:40:57;9.17;;;8.53;;
4057;SDS011;2044;48.692;9.020;2023-07-31T12:43:24;9.10;;;8.60;;
4057;SDS011;2044;48.692;9.020;2023-07-31T12:45:50;9.80;;;9.30;;
4057;SDS011;2044;48.692;9.020;2023-07-31T12:48:19;8.87;;;8.37;;
4057;SDS011;2044;48.692;9.020;2023-07-31T12:50:46;8.97;;;8.53;;
4057;SDS011;2044;48.692;9.020;2023-07-31T12:53:16;9.63;;;9.03;;
4057;SDS011;2044;48.692;9.020;2023-07-31T12:55:43;10.43;;;9.50;;
4057;SDS011;2044;48.692;9.020;2023-07-31T12:58:10;9.40;;;8.90;;
4057;SDS011;2044;48.692;9.020;2023-07-31T13:00:38;9.67;;;9.07;;
4057;SDS011;2044;48.692;9.020;2023-07-31T13:03:05;9.33;;;8.80;;
4057;SDS011;2044;48.692;9.020;2023-07-31T13:05:33;9.30;;;8.80;;
4057;SDS011;2044;48.692;9.020;2023-07-31T13:08:00;9.57;;;8.93;;
4057;SDS011;2044;48.692;9.020;2023-07-31T13:10:27;9.60;;;9.00;;
4057;SDS011;2044;48.692;9.020;2023-07-31T13:12:56;9.20;;;8.67;;
4057;SDS011;2044;48.692;9.020;2023-07-31T13:18:15;8.87;;;8.37;;
4057;SDS011;2044;48.692;9.020;2023-07-31T13:20:44;9.27;;;8.47;;
4057;SDS011;2044;48.692;9.020;2023-07-31T13:23:12;8.77;;;8.17;;
4057;SDS011;2044;48.692;9.020;2023-07-31T13:25:39;10.93;;;9.00;;
4057;SDS011;2044;48.692;9.020;2023-07-31T13:28:08;8.70;;;8.30;;
4057;SDS011;2044;48.692;9.020;2023-07-31T13:30:35;9.00;;;8.40;;
4057;SDS011;2044;48.692;9.020;2023-07-31T13:33:02;9.10;;;8.70;;
4057;SDS011;2044;48.692;9.020;2023-07-31T13:35:29;9.40;;;8.80;;
4057;SDS011;2044;48.692;9.020;2023-07-31T13:37:58;9.17;;;8.67;;
4057;SDS011;2044;48.692;9.020;2023-07-31T13:40:26;8.90;;;8.30;;
4057;SDS011;2044;48.692;9.020;2023-07-31T13:42:53;9.40;;;8.90;;
4057;SDS011;2044;48.692;9.020;2023-07-31T13:45:20;8.43;;;8.03;;
4057;SDS011;2044;48.692;9.020;2023-07-31T13:47:48;9.37;;;8.80;;
4057;SDS011;2044;48.692;9.020;2023-07-31T13:50:23;8.80;;;8.30;;
4057;SDS011;2044;48.692;9.020;2023-07-31T13:52:50;9.17;;;8.67;;
4057;SDS011;2044;48.692;9.020;2023-07-31T13:55:31;9.87;;;9.07;;
4057;SDS011;2044;48.692;9.020;2023-07-31T13:58:00;9.00;;;8.37;;
4057;SDS011;2044;48.692;9.020;2023-07-31T14:00:27;8.73;;;8.23;;
4057;SDS011;2044;48.692;9.020;2023-07-31T14:02:54;9.10;;;8.47;;
4057;SDS011;2044;48.692;9.020;2023-07-31T14:05:21;8.87;;;8.37;;
4057;SDS011;2044;48.692;9.020;2023-07-31T14:07:48;8.70;;;8.20;;
4057;SDS011;2044;48.692;9.020;2023-07-31T14:10:15;8.70;;;8.30;;
4057;SDS011;2044;48.692;9.020;2023-07-31T14:12:44;8.30;;;7.90;;
4057;SDS011;2044;48.692;9.020;2023-07-31T14:15:11;8.80;;;8.40;;
4057;SDS011;2044;48.692;9.020;2023-07-31T14:17:38;9.10;;;8.50;;
4057;SDS011;2044;48.692;9.020;2023-07-31T14:20:05;8.57;;;8.17;;
4057;SDS011;2044;48.692;9.020;2023-07-31T14:22:33;8.77;;;8.30;;
4057;SDS011;2044;48.692;9.020;2023-07-31T14:25:00;8.70;;;8.00;;
4057;SDS011;2044;48.692;9.020;2023-07-31T14:27:27;8.03;;;7.60;;
4057;SDS011;2044;48.692;9.020;2023-07-31T14:29:55;8.47;;;7.90;;
4057;SDS011;2044;48.692;9.020;2023-07-31T14:32:22;8.83;;;8.33;;
4057;SDS011;2044;48.692;9.020;2023-07-31T14:34:50;9.23;;;8.60;;
4057;SDS011;2044;48.692;9.020;2023-07-31T14:37:17;8.03;;;7.63;;
4057;SDS011;2044;48.692;9.020;2023-07-31T14:39:44;8.50;;;7.97;;
4057;SDS011;2044;48.692;9.020;2023-07-31T14:42:11;8.90;;;8.40;;
4057;SDS011;2044;48.692;9.020;2023-07-31T14:44:38;8.37;;;8.00;;
4057;SDS011;2044;48.692;9.020;2023-07-31T14:47:06;8.80;;;8.30;;
4057;SDS011;2044;48.692;9.020;2023-07-31T14:49:33;8.73;;;8.23;;
4057;SDS011;2044;48.692;9.020;2023-07-31T14:52:00;8.60;;;8.00;;
4057;SDS011;2044;48.692;9.020;2023-07-31T14:54:27;8.10;;;7.70;;
4057;SDS011;2044;48.692;9.020;2023-07-31T14:56:54;8.50;;;8.10;;
4057;SDS011;2044;48.692;9.020;2023-07-31T14:59:21;9.03;;;8.47;;
4057;SDS011;2044;48.692;9.020;2023-07-31T15:01:49;9.13;;;8.50;;
4057;SDS011;2044;48.692;9.020;2023-07-31T15:04:20;7.87;;;7.47;;
4057;SDS011;2044;48.692;9.020;2023-07-31T15:07:15;8.60;;;8.13;;
4057;SDS011;2044;48.692;9.020;2023-07-31T15:09:50;9.77;;;8.87;;
4057;SDS011;2044;48.692;9.020;2023-07-31T15:12:19;8.50;;;7.90;;
4057;SDS011;2044;48.692;9.020;2023-07-31T15:14:47;8.30;;;7.90;;
4057;SDS011;2044;48.692;9.020;2023-07-31T15:17:15;10.13;;;8.43;;
4057;SDS011;2044;48.692;9.020;2023-07-31T15:19:46;8.80;;;8.13;;
4057;SDS011;2044;48.692;9.020;2023-07-31T15:22:13;8.70;;;8.10;;
4057;SDS011;2044;48.692;9.020;2023-07-31T15:24:43;8.07;;;7.67;;
4057;SDS011;2044;48.692;9.020;2023-07-31T15:27:42;8.27;;;7.80;;
4057;SDS011;2044;48.692;9.020;2023-07-31T15:30:09;9.60;;;8.87;;
4057;SDS011;2044;48.692;9.020;2023-07-31T15:32:38;8.93;;;8.33;;
4057;SDS011;2044;48.692;9.020;2023-07-31T15:35:07;8.97;;;8.50;;
4057;SDS011;2044;48.692;9.020;2023-07-31T15:37:36;8.53;;;8.13;;
4057;SDS011;2044;48.692;9.020;2023-07-31T15:40:07;9.00;;;8.50;;
4057;SDS011;2044;48.692;9.020;2023-07-31T15:42:35;8.87;;;8.33;;
4057;SDS011;2044;48.692;9.020;2023-07-31T15:45:05;8.50;;;8.10;;
4057;SDS011;2044;48.692;9.020;2023-07-31T15:47:37;8.73;;;8.00;;
4057;SDS011;2044;48.692;9.020;2023-07-31T15:50:12;9.10;;;8.40;;
4057;SDS011;2044;48.692;9.020;2023-07-31T15:52:39;8.70;;;8.30;;
4057;SDS011;2044;48.692;9.020;2023-07-31T15:55:07;9.40;;;8.80;;